aviador You're here:

KPBG Decoded Metar

PLATTSBURGH in NY, USA
Report Time2017-07-25 19:53:00
UTC Time2017-07-25 20:46:06
Flight Rules vfr VFR
WindVRB at 03 kt
Visibility9999 m
Phenomena:N/A
Clouds:Few 028 Hf
Scattered 075 Hf
Overcast 095 Hf
Expected CloudBase > 3,200 ft AGL from Temp-Dew spread
Ceiling9,500 ft
Temp22°C (ISA +7)
Dew Point14°C (61% RH)
QNH1022 hPa
Density Alt1,017 ft
Elevation236 ft
Report Wrong Elevation
Raw Report
KPBG 251953Z AUTO VRB03KT 10SM FEW028 SCT075 OVC095 22/14 A3017
RMK AO2 SLP218 T02170144=

Extra information for KPBG:More info

Metar Taf Metar & Taf Last 4 Metars F.Rules Stats Wind Profile Meteogram Temp Stats Airport Information Weather charts Add Link Nearby VenuesMetar ALERT Operation Metar Decoded Social comments

AIRNAV info for KPBG